Time;durP1;ratioP1;P1;durP2;ratioP2;P2;SDS_P1;SDS_P2;PMS_P1;PMS_P2;Temp;Humidity;BMP_temperature;BMP_pressure;BME280_temperature;BME280_humidity;BME280_pressure;Samples;Min_cycle;Max_cycle;Signal;HPM_P1;HPM_P2
2021/09/26 00:01:57;;;;;;;;;;;17.40;61.60;;;;;;5022949;28;87117;-46
2021/09/26 00:04:23;;;;;;;;;;;17.30;61.70;;;;;;5018875;28;88544;-46
2021/09/26 00:06:48;;;;;;;;;;;17.40;61.70;;;;;;5016119;28;87053;-46
2021/09/26 00:09:14;;;;;;;;;;;17.40;61.70;;;;;;5016665;28;87119;-46
2021/09/26 00:11:40;;;;;;;;;;;17.40;61.60;;;;;;5017485;28;88017;-46
2021/09/26 00:14:06;;;;;;;;;;;17.30;61.60;;;;;;5016662;28;88063;-46
2021/09/26 00:16:32;;;;;;;;;;;17.30;61.70;;;;;;5018215;28;87719;-46
2021/09/26 00:18:57;;;;;;;;;;;17.30;61.70;;;;;;5018839;28;89768;-46
2021/09/26 00:21:23;;;;;;;;;;;17.30;61.60;;;;;;5019505;28;87197;-45
2021/09/26 00:23:49;;;;;;;;;;;17.30;61.70;;;;;;5022058;28;89108;-45
2021/09/26 00:26:15;;;;;;;;;;;17.30;61.70;;;;;;5017721;28;87179;-46
2021/09/26 00:28:40;;;;;;;;;;;17.30;61.60;;;;;;5015520;28;87779;-47
2021/09/26 00:31:06;;;;;;;;;;;17.20;61.80;;;;;;5020078;28;88766;-46
2021/09/26 00:33:32;;;;;;;;;;;17.30;61.60;;;;;;5021239;28;87131;-46
2021/09/26 00:35:58;;;;;;;;;;;17.20;61.70;;;;;;5021178;28;88698;-48
2021/09/26 00:38:24;;;;;;;;;;;17.20;62.30;;;;;;5021338;28;89196;-45
2021/09/26 00:40:50;;;;;;;;;;;17.20;61.70;;;;;;5022768;28;87156;-46
2021/09/26 00:43:15;;;;;;;;;;;17.20;61.70;;;;;;5023060;28;88857;-46
2021/09/26 00:45:41;;;;;;;;;;;17.10;61.60;;;;;;5023564;28;88568;-46
2021/09/26 00:48:07;;;;;;;;;;;17.20;61.70;;;;;;5018491;28;88456;-46
2021/09/26 00:50:32;;;;;;;;;;;17.10;61.70;;;;;;5019057;28;89303;-47
2021/09/26 00:52:58;;;;;;;;;;;17.10;61.70;;;;;;5020712;28;87172;-46
2021/09/26 00:55:23;;;;;;;;;;;17.10;61.70;;;;;;5022302;28;86958;-46
2021/09/26 00:57:49;;;;;;;;;;;17.10;61.60;;;;;;5022814;28;87846;-46
2021/09/26 01:00:17;;;;;;;;;;;17.10;61.70;;;;;;5021217;28;87962;-48
2021/09/26 01:02:42;;;;;;;;;;;17.10;61.70;;;;;;5020911;28;88199;-46
2021/09/26 01:05:09;;;;;;;;;;;17.10;61.70;;;;;;5024740;28;89543;-46
2021/09/26 01:07:39;;;;;;;;;;;17.10;61.70;;;;;;5020738;28;88464;-47
2021/09/26 01:10:23;;;;;;;;;;;17.10;61.70;;;;;;5021988;28;88117;-46
2021/09/26 01:12:55;;;;;;;;;;;17.10;61.60;;;;;;5018863;28;87125;-46
2021/09/26 01:15:50;;;;;;;;;;;17.10;61.70;;;;;;5018095;28;87652;-46
2021/09/26 01:18:24;;;;;;;;;;;17.00;61.60;;;;;;5018474;28;89630;-46
2021/09/26 01:20:56;;;;;;;;;;;17.00;61.60;;;;;;5022003;28;87422;-46
2021/09/26 01:23:30;;;;;;;;;;;17.00;61.60;;;;;;5021015;28;90420;-46
2021/09/26 01:26:05;;;;;;;;;;;17.00;61.60;;;;;;5018215;28;88177;-46
2021/09/26 01:28:48;;;;;;;;;;;17.00;61.70;;;;;;5023426;28;88109;-45
2021/09/26 01:31:21;;;;;;;;;;;17.00;61.60;;;;;;5018348;28;87698;-46
2021/09/26 01:33:59;;;;;;;;;;;17.00;61.60;;;;;;5018991;28;87278;-46
2021/09/26 01:36:30;;;;;;;;;;;16.90;61.60;;;;;;5021955;28;87183;-46
2021/09/26 01:39:03;;;;;;;;;;;16.90;61.50;;;;;;5022227;28;87826;-46
2021/09/26 01:41:33;;;;;;;;;;;16.90;61.50;;;;;;5019208;28;87145;-46
2021/09/26 01:44:01;;;;;;;;;;;16.90;61.50;;;;;;5020436;28;87186;-46
2021/09/26 01:46:30;;;;;;;;;;;16.90;61.50;;;;;;5018670;28;88261;-45
2021/09/26 01:49:04;;;;;;;;;;;16.90;61.50;;;;;;5021721;28;88214;-46
2021/09/26 01:51:34;;;;;;;;;;;16.90;62.10;;;;;;5020263;28;87991;-46
2021/09/26 01:54:00;;;;;;;;;;;16.90;61.50;;;;;;5018403;28;88174;-46
2021/09/26 01:56:26;;;;;;;;;;;16.90;61.50;;;;;;5019637;28;88567;-45
2021/09/26 01:58:51;;;;;;;;;;;16.80;61.60;;;;;;5019165;28;89953;-46
2021/09/26 02:01:17;;;;;;;;;;;16.80;61.50;;;;;;5020432;28;87145;-46
2021/09/26 02:03:44;;;;;;;;;;;16.80;61.60;;;;;;5021495;28;87131;-46
2021/09/26 02:06:09;;;;;;;;;;;16.80;61.60;;;;;;5020461;28;88998;-46
2021/09/26 02:08:36;;;;;;;;;;;16.80;61.60;;;;;;5022238;28;87661;-45
2021/09/26 02:11:01;;;;;;;;;;;16.80;61.50;;;;;;5021437;28;88856;-46
2021/09/26 02:13:28;;;;;;;;;;;16.80;61.60;;;;;;5021152;28;88444;-46
2021/09/26 02:15:54;;;;;;;;;;;16.80;61.60;;;;;;5017750;28;87986;-46
2021/09/26 02:18:20;;;;;;;;;;;16.80;61.60;;;;;;5016063;28;90159;-46
2021/09/26 02:20:46;;;;;;;;;;;16.70;61.50;;;;;;5017099;28;87224;-50
2021/09/26 02:23:12;;;;;;;;;;;16.70;61.50;;;;;;5018093;28;87946;-46
2021/09/26 02:25:40;;;;;;;;;;;16.70;61.50;;;;;;5017738;28;89007;-45
2021/09/26 02:28:05;;;;;;;;;;;16.70;61.60;;;;;;5016984;28;88160;-46
2021/09/26 02:30:31;;;;;;;;;;;16.70;61.50;;;;;;5017790;28;87548;-47
2021/09/26 02:32:57;;;;;;;;;;;16.60;61.50;;;;;;5018605;28;88676;-45
2021/09/26 02:35:22;;;;;;;;;;;16.70;61.60;;;;;;5022853;28;86424;-46
2021/09/26 02:37:48;;;;;;;;;;;16.70;61.60;;;;;;5020699;28;87893;-46
2021/09/26 02:40:14;;;;;;;;;;;16.60;61.60;;;;;;5020600;28;87262;-46
2021/09/26 02:43:02;;;;;;;;;;;16.60;61.60;;;;;;5018330;28;88650;-46
2021/09/26 02:45:28;;;;;;;;;;;16.60;61.60;;;;;;5020721;28;88074;-46
2021/09/26 02:47:56;;;;;;;;;;;16.60;61.50;;;;;;5021223;28;87232;-46
2021/09/26 02:50:22;;;;;;;;;;;16.60;61.50;;;;;;5019054;28;87184;-46
2021/09/26 02:52:47;;;;;;;;;;;16.60;61.50;;;;;;5018772;28;89717;-46
2021/09/26 02:55:14;;;;;;;;;;;16.60;61.50;;;;;;5021147;28;87110;-46
2021/09/26 02:57:39;;;;;;;;;;;16.60;61.50;;;;;;5023798;28;87590;-46
2021/09/26 03:00:05;;;;;;;;;;;16.50;61.60;;;;;;5019724;28;87230;-46
2021/09/26 03:02:31;;;;;;;;;;;16.50;61.60;;;;;;5017210;28;88557;-46
2021/09/26 03:04:57;;;;;;;;;;;16.50;61.70;;;;;;5016636;28;87591;-46
2021/09/26 03:07:22;;;;;;;;;;;16.50;61.70;;;;;;5017447;28;88207;-46
2021/09/26 03:09:48;;;;;;;;;;;16.50;61.70;;;;;;5019389;28;87131;-45
2021/09/26 03:12:15;;;;;;;;;;;16.50;61.70;;;;;;5020277;28;87512;-46
2021/09/26 03:14:40;;;;;;;;;;;16.40;61.60;;;;;;5019711;28;87117;-46
2021/09/26 03:17:06;;;;;;;;;;;16.40;61.60;;;;;;5023353;28;87104;-46
2021/09/26 03:19:33;;;;;;;;;;;16.40;61.60;;;;;;5018805;28;87170;-46
2021/09/26 03:21:59;;;;;;;;;;;16.40;62.30;;;;;;5020260;28;88461;-47
2021/09/26 03:24:25;;;;;;;;;;;16.40;61.60;;;;;;5019561;28;87356;-45
2021/09/26 03:26:50;;;;;;;;;;;16.40;61.60;;;;;;5018762;28;87156;-46
2021/09/26 03:29:16;;;;;;;;;;;16.40;61.60;;;;;;5017858;28;87981;-46
2021/09/26 03:31:41;;;;;;;;;;;16.40;61.60;;;;;;5016335;28;88618;-46
2021/09/26 03:34:07;;;;;;;;;;;16.40;61.60;;;;;;5016657;28;87183;-45
2021/09/26 03:36:32;;;;;;;;;;;16.40;61.70;;;;;;5018224;28;87124;-46
2021/09/26 03:38:58;;;;;;;;;;;16.30;61.60;;;;;;5021951;28;87527;-46
2021/09/26 03:41:23;;;;;;;;;;;16.30;61.60;;;;;;5020454;28;89659;-46
2021/09/26 03:43:49;;;;;;;;;;;16.30;61.60;;;;;;5017706;28;87394;-46
2021/09/26 03:46:15;;;;;;;;;;;16.30;61.60;;;;;;5016098;28;87200;-46
2021/09/26 03:48:40;;;;;;;;;;;16.30;61.50;;;;;;5016578;28;88060;-46
2021/09/26 03:51:06;;;;;;;;;;;16.30;61.60;;;;;;5016519;28;89679;-46
2021/09/26 03:53:31;;;;;;;;;;;16.20;61.60;;;;;;5018136;28;87117;-46
2021/09/26 03:55:57;;;;;;;;;;;16.20;61.70;;;;;;5018616;28;88126;-46
2021/09/26 03:58:22;;;;;;;;;;;16.20;61.60;;;;;;5020033;28;88747;-46
2021/09/26 04:00:48;;;;;;;;;;;16.20;61.70;;;;;;5023495;28;87148;-46
2021/09/26 04:03:13;;;;;;;;;;;16.20;61.70;;;;;;5017686;28;88184;-46
2021/09/26 04:05:39;;;;;;;;;;;16.20;61.70;;;;;;5019576;28;87978;-46
2021/09/26 04:08:04;;;;;;;;;;;16.20;61.70;;;;;;5019138;28;88879;-46
2021/09/26 04:10:30;;;;;;;;;;;16.10;61.60;;;;;;5019258;28;87924;-46
2021/09/26 04:12:55;;;;;;;;;;;16.10;61.70;;;;;;5021091;28;86412;-46
2021/09/26 04:15:21;;;;;;;;;;;16.10;61.70;;;;;;5022065;28;87294;-46
2021/09/26 04:17:46;;;;;;;;;;;16.10;61.70;;;;;;5022696;28;88186;-46
2021/09/26 04:20:12;;;;;;;;;;;16.10;61.60;;;;;;5021583;28;89699;-46
2021/09/26 04:22:38;;;;;;;;;;;16.10;61.70;;;;;;5022159;28;89612;-45
2021/09/26 04:25:04;;;;;;;;;;;16.10;61.70;;;;;;5019716;28;87314;-46
2021/09/26 04:27:29;;;;;;;;;;;16.10;61.70;;;;;;5019852;28;87433;-46
2021/09/26 04:29:55;;;;;;;;;;;16.00;61.70;;;;;;5020605;28;89751;-46
2021/09/26 04:32:21;;;;;;;;;;;16.00;61.70;;;;;;5022289;28;87121;-46
2021/09/26 04:34:46;;;;;;;;;;;16.00;61.70;;;;;;5022912;28;88614;-46
2021/09/26 04:37:12;;;;;;;;;;;16.00;61.70;;;;;;5020957;28;87768;-46
2021/09/26 04:39:37;;;;;;;;;;;16.00;61.70;;;;;;5019029;28;87262;-46
2021/09/26 04:42:03;;;;;;;;;;;16.00;61.70;;;;;;5020350;28;87154;-46
2021/09/26 04:44:29;;;;;;;;;;;16.00;61.70;;;;;;5022657;28;89113;-46
2021/09/26 04:46:55;;;;;;;;;;;15.90;61.70;;;;;;5021131;28;89574;-47
2021/09/26 04:49:20;;;;;;;;;;;15.90;61.80;;;;;;5021950;28;88210;-46
2021/09/26 04:51:46;;;;;;;;;;;16.00;61.80;;;;;;5023207;28;87128;-46
2021/09/26 04:54:12;;;;;;;;;;;15.90;61.70;;;;;;5019758;28;88034;-46
2021/09/26 04:56:37;;;;;;;;;;;15.90;61.70;;;;;;5018042;28;89611;-46
2021/09/26 04:59:03;;;;;;;;;;;15.90;61.70;;;;;;5018708;28;87185;-46
2021/09/26 05:01:28;;;;;;;;;;;15.90;61.80;;;;;;5020245;28;87384;-46
2021/09/26 05:03:54;;;;;;;;;;;15.90;61.80;;;;;;5020635;28;87772;-46
2021/09/26 05:06:20;;;;;;;;;;;15.90;61.70;;;;;;5024805;28;87162;-46
2021/09/26 05:08:46;;;;;;;;;;;15.90;61.70;;;;;;5021499;28;90222;-46
2021/09/26 05:11:11;;;;;;;;;;;15.90;61.70;;;;;;5020952;28;88620;-46
2021/09/26 05:13:37;;;;;;;;;;;15.90;61.80;;;;;;5018312;28;88060;-46
2021/09/26 05:16:02;;;;;;;;;;;15.80;61.70;;;;;;5018270;28;87428;-46
2021/09/26 05:18:28;;;;;;;;;;;15.80;61.60;;;;;;5019892;28;87149;-46
2021/09/26 05:20:54;;;;;;;;;;;15.80;61.70;;;;;;5020225;28;87169;-46
2021/09/26 05:23:20;;;;;;;;;;;15.80;62.40;;;;;;5020412;28;89943;-46
2021/09/26 05:25:46;;;;;;;;;;;15.80;61.80;;;;;;5024164;28;86447;-46
2021/09/26 05:28:11;;;;;;;;;;;15.80;61.80;;;;;;5021549;28;89354;-45
2021/09/26 05:30:37;;;;;;;;;;;15.80;61.70;;;;;;5022590;28;87157;-45
2021/09/26 05:33:03;;;;;;;;;;;15.80;61.70;;;;;;5019221;28;88494;-46
2021/09/26 05:35:29;;;;;;;;;;;15.80;61.70;;;;;;5019193;28;88103;-46
2021/09/26 05:37:55;;;;;;;;;;;15.80;61.70;;;;;;5021719;28;88638;-46
2021/09/26 05:40:21;;;;;;;;;;;15.80;61.80;;;;;;5021595;28;87155;-46
2021/09/26 05:42:46;;;;;;;;;;;15.80;61.80;;;;;;5020771;28;87898;-47
2021/09/26 05:45:12;;;;;;;;;;;15.70;61.80;;;;;;5022457;28;87150;-46
2021/09/26 05:47:37;;;;;;;;;;;15.70;61.70;;;;;;5022558;28;88603;-46
2021/09/26 05:50:03;;;;;;;;;;;15.80;61.80;;;;;;5018898;28;86413;-46
2021/09/26 05:52:28;;;;;;;;;;;15.70;61.70;;;;;;5017680;28;87682;-46
2021/09/26 05:54:54;;;;;;;;;;;15.70;61.70;;;;;;5019594;28;87687;-45
2021/09/26 05:57:20;;;;;;;;;;;15.70;61.80;;;;;;5019421;28;89617;-46
2021/09/26 05:59:45;;;;;;;;;;;15.70;61.80;;;;;;5019404;28;88021;-46
2021/09/26 06:02:11;;;;;;;;;;;15.70;61.90;;;;;;5020302;28;87568;-46
2021/09/26 06:04:37;;;;;;;;;;;15.70;61.80;;;;;;5017818;28;87124;-46
2021/09/26 06:07:02;;;;;;;;;;;15.70;61.90;;;;;;5017326;28;87767;-46
2021/09/26 06:09:28;;;;;;;;;;;15.70;61.90;;;;;;5021281;28;87974;-46
2021/09/26 06:11:54;;;;;;;;;;;15.70;61.90;;;;;;5020672;28;87965;-46
2021/09/26 06:14:19;;;;;;;;;;;15.70;62.00;;;;;;5020103;28;87883;-46
2021/09/26 06:16:45;;;;;;;;;;;15.70;62.10;;;;;;5020897;28;87138;-46
2021/09/26 06:19:10;;;;;;;;;;;15.70;62.00;;;;;;5018783;28;87807;-46
2021/09/26 06:21:36;;;;;;;;;;;15.60;62.10;;;;;;5019011;28;90120;-46
2021/09/26 06:24:02;;;;;;;;;;;15.60;62.10;;;;;;5018840;28;87118;-46
2021/09/26 06:26:27;;;;;;;;;;;15.70;62.10;;;;;;5018648;28;87387;-46
2021/09/26 06:28:53;;;;;;;;;;;15.70;62.10;;;;;;5017957;28;88281;-46
2021/09/26 06:31:19;;;;;;;;;;;15.70;62.10;;;;;;5023324;28;87128;-47
2021/09/26 06:33:44;;;;;;;;;;;15.70;62.20;;;;;;5018564;28;89770;-46
2021/09/26 06:36:10;;;;;;;;;;;15.70;62.10;;;;;;5018751;28;87214;-46
2021/09/26 06:38:36;;;;;;;;;;;15.70;62.00;;;;;;5020789;28;87941;-46
2021/09/26 06:41:01;;;;;;;;;;;15.70;61.90;;;;;;5017523;28;88383;-46
2021/09/26 06:43:27;;;;;;;;;;;15.70;62.00;;;;;;5020314;28;87169;-46
2021/09/26 06:45:52;;;;;;;;;;;15.70;61.80;;;;;;5019764;28;88859;-46
2021/09/26 06:48:18;;;;;;;;;;;15.70;62.10;;;;;;5019698;28;87695;-46
2021/09/26 06:50:43;;;;;;;;;;;15.70;62.20;;;;;;5018165;28;87202;-46
2021/09/26 06:53:09;;;;;;;;;;;15.60;62.20;;;;;;5022626;28;87148;-46
2021/09/26 06:55:34;;;;;;;;;;;15.70;62.00;;;;;;5018165;28;87168;-46
2021/09/26 06:58:00;;;;;;;;;;;15.70;62.10;;;;;;5019447;28;87878;-46
2021/09/26 07:00:26;;;;;;;;;;;15.70;62.20;;;;;;5018553;28;87902;-46
2021/09/26 07:02:52;;;;;;;;;;;15.70;62.10;;;;;;5019347;28;86441;-46
2021/09/26 07:05:18;;;;;;;;;;;15.80;62.10;;;;;;5020280;28;87185;-46
2021/09/26 07:07:45;;;;;;;;;;;15.70;62.20;;;;;;5017738;28;87988;-46
2021/09/26 07:10:12;;;;;;;;;;;15.80;62.30;;;;;;5016791;28;88153;-46
2021/09/26 07:12:38;;;;;;;;;;;15.70;62.20;;;;;;5021706;28;87893;-46
2021/09/26 07:15:03;;;;;;;;;;;15.80;62.30;;;;;;5020429;28;87202;-46
2021/09/26 07:17:30;;;;;;;;;;;15.80;62.20;;;;;;5019724;28;87669;-45
2021/09/26 07:19:56;;;;;;;;;;;15.80;62.20;;;;;;5018664;28;89458;-46
2021/09/26 07:22:23;;;;;;;;;;;15.80;62.20;;;;;;5018790;28;87164;-46
2021/09/26 07:24:51;;;;;;;;;;;15.80;62.20;;;;;;5017866;28;88797;-46
2021/09/26 07:27:18;;;;;;;;;;;15.80;62.10;;;;;;5018116;28;89382;-46
2021/09/26 07:29:44;;;;;;;;;;;15.80;62.10;;;;;;5017028;28;88127;-46
2021/09/26 07:32:10;;;;;;;;;;;15.80;62.20;;;;;;5019698;28;88028;-46
2021/09/26 07:34:36;;;;;;;;;;;15.80;62.20;;;;;;5020014;28;90034;-46
2021/09/26 07:37:01;;;;;;;;;;;15.80;62.20;;;;;;5018226;28;87920;-46
2021/09/26 07:39:27;;;;;;;;;;;15.80;62.20;;;;;;5018129;28;88247;-49
2021/09/26 07:41:52;;;;;;;;;;;15.80;62.20;;;;;;5015773;28;87188;-46
2021/09/26 07:44:18;;;;;;;;;;;15.80;62.20;;;;;;5017172;28;87811;-46
2021/09/26 07:46:44;;;;;;;;;;;15.80;62.10;;;;;;5017946;28;88393;-46
2021/09/26 07:49:10;;;;;;;;;;;15.80;62.30;;;;;;5019004;28;87217;-46
2021/09/26 07:51:35;;;;;;;;;;;15.80;62.30;;;;;;5017421;28;87760;-46
2021/09/26 07:54:01;;;;;;;;;;;15.80;62.30;;;;;;5019115;28;88272;-46
2021/09/26 07:56:26;;;;;;;;;;;15.80;62.40;;;;;;5019918;28;88097;-46
2021/09/26 07:58:52;;;;;;;;;;;15.90;62.40;;;;;;5018585;28;88527;-46
2021/09/26 08:01:18;;;;;;;;;;;15.80;62.40;;;;;;5017293;28;87969;-51
2021/09/26 08:03:44;;;;;;;;;;;15.80;63.60;;;;;;5018105;28;89134;-47
2021/09/26 08:06:09;;;;;;;;;;;15.80;66.40;;;;;;5017805;28;89570;-47
2021/09/26 08:08:36;;;;;;;;;;;15.80;66.20;;;;;;5017779;28;87136;-46
2021/09/26 08:11:02;;;;;;;;;;;15.90;65.40;;;;;;5015134;28;87980;-47
2021/09/26 08:13:28;;;;;;;;;;;15.90;65.30;;;;;;5018774;28;89279;-47
2021/09/26 08:15:53;;;;;;;;;;;16.00;65.70;;;;;;5020024;28;86689;-46
2021/09/26 08:18:19;;;;;;;;;;;16.00;65.50;;;;;;5020285;28;88069;-47
2021/09/26 08:20:44;;;;;;;;;;;16.00;65.00;;;;;;5018207;28;88837;-46
2021/09/26 08:23:10;;;;;;;;;;;16.00;64.90;;;;;;5016255;28;88096;-47
2021/09/26 08:25:36;;;;;;;;;;;16.00;65.00;;;;;;5018442;28;89793;-47
2021/09/26 08:28:02;;;;;;;;;;;16.00;64.70;;;;;;5018379;28;87133;-47
2021/09/26 08:30:27;;;;;;;;;;;16.00;64.20;;;;;;5018176;28;87219;-47
2021/09/26 08:32:53;;;;;;;;;;;16.00;64.70;;;;;;5017998;28;88321;-45
2021/09/26 08:35:18;;;;;;;;;;;16.10;64.20;;;;;;5017735;28;87160;-47
2021/09/26 08:37:44;;;;;;;;;;;16.00;67.60;;;;;;5019360;28;87229;-47
2021/09/26 08:40:10;;;;;;;;;;;16.10;67.20;;;;;;5021836;28;87300;-47
2021/09/26 08:42:37;;;;;;;;;;;16.10;66.10;;;;;;5019193;28;88408;-47
2021/09/26 08:45:07;;;;;;;;;;;16.10;65.50;;;;;;5019353;28;89118;-48
2021/09/26 08:47:36;;;;;;;;;;;16.10;64.80;;;;;;5017760;28;88304;-49
2021/09/26 08:50:03;;;;;;;;;;;16.20;64.70;;;;;;5018032;28;89944;-47
2021/09/26 08:52:28;;;;;;;;;;;16.10;64.80;;;;;;5019531;28;88833;-46
2021/09/26 08:54:54;;;;;;;;;;;16.10;67.50;;;;;;5021854;28;87112;-48
2021/09/26 08:57:21;;;;;;;;;;;16.20;68.10;;;;;;5021987;28;87374;-47
2021/09/26 08:59:47;;;;;;;;;;;16.30;67.90;;;;;;5018745;28;89184;-48
2021/09/26 09:02:12;;;;;;;;;;;16.30;66.80;;;;;;5024323;28;87155;-47
2021/09/26 09:04:39;;;;;;;;;;;16.30;65.60;;;;;;5021930;28;87365;-48
2021/09/26 09:07:06;;;;;;;;;;;16.30;65.00;;;;;;5021059;28;87133;-48
2021/09/26 09:09:46;;;;;;;;;;;16.30;65.00;;;;;;5018727;28;88858;-48
2021/09/26 09:12:11;;;;;;;;;;;16.30;65.00;;;;;;5020250;28;89084;-48
2021/09/26 09:14:52;;;;;;;;;;;16.30;64.90;;;;;;5021581;28;87136;-50
2021/09/26 09:17:24;;;;;;;;;;;16.20;66.40;;;;;;5021748;28;88691;-47
2021/09/26 09:20:09;;;;;;;;;;;16.40;67.40;;;;;;5021407;28;88078;-46
2021/09/26 09:22:35;;;;;;;;;;;16.40;66.30;;;;;;5022124;28;87177;-46
2021/09/26 09:25:00;;;;;;;;;;;16.60;67.40;;;;;;5021034;28;88724;-46
2021/09/26 09:27:26;;;;;;;;;;;16.80;67.40;;;;;;5018823;28;87196;-46
2021/09/26 09:29:52;;;;;;;;;;;16.90;66.90;;;;;;5021881;28;87004;-47
2021/09/26 09:32:18;;;;;;;;;;;17.00;67.80;;;;;;5019395;28;88267;-47
2021/09/26 09:34:44;;;;;;;;;;;17.00;67.00;;;;;;5019256;28;87172;-48
2021/09/26 09:37:15;;;;;;;;;;;16.80;67.10;;;;;;5020145;28;89058;-46
2021/09/26 09:39:42;;;;;;;;;;;16.80;67.10;;;;;;5021150;28;89960;-48
2021/09/26 09:42:18;;;;;;;;;;;16.80;67.10;;;;;;5020086;28;87248;-47
2021/09/26 09:44:44;;;;;;;;;;;16.80;66.80;;;;;;5022444;28;87147;-47
2021/09/26 09:47:10;;;;;;;;;;;16.90;66.40;;;;;;5021328;28;87181;-47
2021/09/26 09:49:36;;;;;;;;;;;16.80;67.10;;;;;;5019577;28;87726;-48
2021/09/26 09:52:03;;;;;;;;;;;16.80;66.70;;;;;;5019468;28;87476;-48
2021/09/26 09:54:30;;;;;;;;;;;16.90;66.40;;;;;;5018664;28;86421;-47
2021/09/26 09:56:57;;;;;;;;;;;16.90;66.80;;;;;;5020123;28;88674;-47
2021/09/26 09:59:32;;;;;;;;;;;16.90;66.30;;;;;;5021732;28;88352;-47
2021/09/26 10:01:58;;;;;;;;;;;16.90;66.10;;;;;;5019388;28;89686;-47
2021/09/26 10:04:33;;;;;;;;;;;16.80;66.10;;;;;;5017413;28;89891;-49
2021/09/26 10:06:59;;;;;;;;;;;16.80;65.90;;;;;;5020352;28;87856;-47
2021/09/26 10:09:28;;;;;;;;;;;16.80;65.60;;;;;;5018369;28;87613;-46
2021/09/26 10:11:54;;;;;;;;;;;16.80;65.60;;;;;;5019597;28;88798;-47
2021/09/26 10:14:21;;;;;;;;;;;16.80;65.80;;;;;;5020760;28;87119;-47
2021/09/26 10:16:47;;;;;;;;;;;16.80;65.60;;;;;;5020153;28;87809;-47
2021/09/26 10:19:13;;;;;;;;;;;16.80;65.60;;;;;;5018537;28;86777;-47
2021/09/26 10:21:39;;;;;;;;;;;16.80;65.50;;;;;;5016838;28;87180;-48
2021/09/26 10:24:05;;;;;;;;;;;16.80;66.30;;;;;;5017392;28;88395;-47
2021/09/26 10:26:30;;;;;;;;;;;16.80;65.30;;;;;;5015872;28;89845;-48
2021/09/26 10:28:57;;;;;;;;;;;16.90;65.40;;;;;;5020175;28;87121;-46
2021/09/26 10:31:25;;;;;;;;;;;16.90;65.40;;;;;;5016638;28;89590;-47
2021/09/26 10:33:51;;;;;;;;;;;16.90;65.30;;;;;;5020616;28;87135;-46
2021/09/26 10:36:18;;;;;;;;;;;16.90;65.10;;;;;;5019627;28;88482;-46
2021/09/26 10:38:44;;;;;;;;;;;16.90;64.70;;;;;;5016639;28;89471;-47
2021/09/26 10:41:09;;;;;;;;;;;17.00;65.20;;;;;;5019210;28;88109;-47
2021/09/26 10:43:35;;;;;;;;;;;17.00;64.90;;;;;;5017961;28;87810;-47
2021/09/26 10:46:15;;;;;;;;;;;17.00;64.90;;;;;;5021390;28;89622;-45
2021/09/26 10:48:55;;;;;;;;;;;17.00;65.00;;;;;;5016582;28;87129;-54
2021/09/26 10:51:40;;;;;;;;;;;17.70;63.00;;;;;;5019681;28;88080;-51
2021/09/26 10:54:24;;;;;;;;;;;17.90;62.30;;;;;;5020365;28;87173;-58
2021/09/26 10:56:51;;;;;;;;;;;17.90;62.60;;;;;;5019905;28;87494;-50
2021/09/26 10:59:16;;;;;;;;;;;18.10;61.20;;;;;;5020763;28;88576;-49
2021/09/26 11:01:42;;;;;;;;;;;18.10;59.30;;;;;;5019993;28;87152;-48
2021/09/26 11:04:11;;;;;;;;;;;18.20;58.80;;;;;;5019581;28;87177;-45
2021/09/26 11:06:36;;;;;;;;;;;18.40;59.40;;;;;;5020337;28;88444;-47
2021/09/26 11:09:03;;;;;;;;;;;18.30;61.60;;;;;;5021379;28;86476;-46
2021/09/26 11:11:38;;;;;;;;;;;18.10;60.40;;;;;;5019604;28;87237;-46
2021/09/26 11:14:04;;;;;;;;;;;18.40;56.10;;;;;;5021797;28;89767;-44
2021/09/26 11:16:48;;;;;;;;;;;18.60;55.70;;;;;;5019252;28;89524;-50
2021/09/26 11:19:15;;;;;;;;;;;18.60;54.80;;;;;;5016412;28;89459;-45
2021/09/26 11:21:42;;;;;;;;;;;18.60;53.50;;;;;;5016107;28;87273;-50
2021/09/26 11:24:07;;;;;;;;;;;18.60;55.80;;;;;;5020258;28;88480;-49
2021/09/26 11:26:51;;;;;;;;;;;18.30;58.40;;;;;;5016173;28;88658;-46
2021/09/26 11:29:17;;;;;;;;;;;18.20;58.80;;;;;;5018651;28;87150;-47
2021/09/26 11:31:42;;;;;;;;;;;18.40;56.20;;;;;;5019104;28;87607;-48
2021/09/26 11:34:08;;;;;;;;;;;18.70;55.20;;;;;;5021138;28;88797;-55
2021/09/26 11:36:33;;;;;;;;;;;18.70;55.40;;;;;;5019115;28;87161;-45
2021/09/26 11:39:18;;;;;;;;;;;18.50;56.70;;;;;;5019469;28;89043;-45
2021/09/26 11:41:43;;;;;;;;;;;18.40;57.40;;;;;;5015892;28;88085;-45
2021/09/26 11:44:09;;;;;;;;;;;18.40;57.60;;;;;;5017847;28;87981;-45
2021/09/26 11:46:35;;;;;;;;;;;18.40;57.80;;;;;;5016967;28;90137;-45
2021/09/26 11:49:03;;;;;;;;;;;18.40;58.10;;;;;;5016812;28;87168;-45
2021/09/26 11:51:30;;;;;;;;;;;18.30;58.40;;;;;;5020229;28;88122;-45
2021/09/26 11:53:56;;;;;;;;;;;18.40;58.60;;;;;;5020036;28;87473;-45
2021/09/26 11:56:23;;;;;;;;;;;18.30;58.80;;;;;;5022685;28;88845;-45
2021/09/26 11:58:53;;;;;;;;;;;18.30;59.00;;;;;;5018568;28;87053;-46
2021/09/26 12:01:26;;;;;;;;;;;18.30;59.10;;;;;;5018813;28;87134;-45
2021/09/26 12:04:05;;;;;;;;;;;18.30;59.30;;;;;;5017506;28;87536;-46
2021/09/26 12:06:30;;;;;;;;;;;18.30;59.50;;;;;;5018130;28;89770;-45
2021/09/26 12:08:56;;;;;;;;;;;18.30;59.60;;;;;;5016246;28;88851;-45
2021/09/26 12:11:21;;;;;;;;;;;18.30;59.70;;;;;;5016076;28;88740;-45
2021/09/26 12:13:49;;;;;;;;;;;18.30;59.90;;;;;;5016243;28;87761;-45
2021/09/26 12:16:15;;;;;;;;;;;18.30;59.90;;;;;;5015757;28;88157;-44
2021/09/26 12:18:40;;;;;;;;;;;18.30;60.50;;;;;;5018610;28;88496;-45
2021/09/26 12:21:08;;;;;;;;;;;18.30;60.00;;;;;;5017158;28;87154;-45
2021/09/26 12:23:52;;;;;;;;;;;18.30;60.10;;;;;;5016316;28;88162;-45
2021/09/26 12:26:21;;;;;;;;;;;18.30;60.20;;;;;;5020561;28;87913;-45
2021/09/26 12:28:57;;;;;;;;;;;18.30;60.20;;;;;;5020853;28;88820;-45
2021/09/26 12:31:26;;;;;;;;;;;18.30;60.10;;;;;;5020792;28;89692;-45
2021/09/26 12:33:54;;;;;;;;;;;18.30;60.20;;;;;;5021394;28;87917;-45
2021/09/26 12:36:20;;;;;;;;;;;18.30;60.30;;;;;;5022142;28;88946;-46
2021/09/26 12:38:46;;;;;;;;;;;18.40;60.30;;;;;;5023260;28;89062;-46
2021/09/26 12:41:11;;;;;;;;;;;18.50;57.30;;;;;;5025974;28;88221;-45
2021/09/26 12:43:46;;;;;;;;;;;18.40;58.50;;;;;;5019870;28;88622;-44
2021/09/26 12:46:15;;;;;;;;;;;18.40;58.70;;;;;;5020159;28;88962;-46
2021/09/26 12:48:42;;;;;;;;;;;18.50;58.90;;;;;;5022765;28;87340;-45
2021/09/26 12:51:13;;;;;;;;;;;18.60;59.20;;;;;;5021740;28;88270;-46
2021/09/26 12:53:40;;;;;;;;;;;18.50;59.40;;;;;;5021950;28;87928;-45
2021/09/26 12:56:07;;;;;;;;;;;18.50;59.50;;;;;;5020686;28;88121;-45
2021/09/26 12:58:41;;;;;;;;;;;18.50;59.70;;;;;;5020991;28;88445;-45
2021/09/26 13:01:15;;;;;;;;;;;18.50;59.50;;;;;;5019050;28;88678;-45
2021/09/26 13:04:03;;;;;;;;;;;18.60;59.50;;;;;;5023119;28;87163;-45
2021/09/26 13:06:37;;;;;;;;;;;18.60;59.60;;;;;;5018867;28;88197;-45
2021/09/26 13:09:14;;;;;;;;;;;18.60;59.70;;;;;;5020967;28;87249;-44
2021/09/26 13:11:41;;;;;;;;;;;18.60;59.70;;;;;;5019022;28;87646;-44
2021/09/26 13:14:26;;;;;;;;;;;18.60;59.80;;;;;;5019636;28;87906;-45
2021/09/26 13:17:00;;;;;;;;;;;18.70;59.80;;;;;;5020395;28;87172;-45
2021/09/26 13:19:34;;;;;;;;;;;18.70;59.80;;;;;;5021727;28;87263;-45
2021/09/26 13:22:02;;;;;;;;;;;18.70;59.90;;;;;;5017611;28;90607;-45
2021/09/26 13:24:28;;;;;;;;;;;18.70;59.90;;;;;;5021316;28;88780;-45
2021/09/26 13:26:53;;;;;;;;;;;18.70;59.90;;;;;;5021646;28;88771;-45
2021/09/26 13:29:22;;;;;;;;;;;18.80;60.00;;;;;;5018819;28;88845;-45
2021/09/26 13:31:49;;;;;;;;;;;18.80;60.00;;;;;;5020999;28;87749;-47
2021/09/26 13:34:14;;;;;;;;;;;18.80;60.00;;;;;;5017541;28;91910;-46
2021/09/26 13:36:50;;;;;;;;;;;18.80;60.00;;;;;;5017495;28;87531;-45
2021/09/26 13:39:32;;;;;;;;;;;18.80;60.10;;;;;;5018629;28;87485;-44
2021/09/26 13:42:04;;;;;;;;;;;18.80;60.00;;;;;;5018472;28;87669;-45
2021/09/26 13:44:29;;;;;;;;;;;18.90;59.50;;;;;;5019679;28;88069;-45
2021/09/26 13:46:56;;;;;;;;;;;18.90;60.60;;;;;;5020395;28;88961;-46
2021/09/26 13:49:22;;;;;;;;;;;18.90;59.80;;;;;;5022139;28;87139;-45
2021/09/26 13:51:48;;;;;;;;;;;18.90;59.90;;;;;;5021786;28;87846;-45
2021/09/26 13:54:13;;;;;;;;;;;18.90;60.00;;;;;;5019372;28;88931;-45
2021/09/26 13:56:39;;;;;;;;;;;19.00;60.00;;;;;;5017955;28;88114;-45
2021/09/26 13:59:05;;;;;;;;;;;19.00;60.10;;;;;;5018627;28;87731;-45
2021/09/26 14:01:31;;;;;;;;;;;19.00;60.10;;;;;;5017180;28;89628;-46
2021/09/26 14:03:57;;;;;;;;;;;19.30;53.40;;;;;;5018086;28;86400;-46
2021/09/26 14:06:23;;;;;;;;;;;19.60;51.10;;;;;;5018116;28;87145;-46
2021/09/26 14:08:49;;;;;;;;;;;19.70;49.50;;;;;;5020824;28;88399;-47
2021/09/26 14:11:15;;;;;;;;;;;19.90;48.50;;;;;;5017720;28;88052;-49
2021/09/26 14:13:41;;;;;;;;;;;20.10;49.40;;;;;;5017393;28;89569;-45
2021/09/26 14:16:07;;;;;;;;;;;20.20;48.90;;;;;;5018241;28;87137;-45
2021/09/26 14:18:33;;;;;;;;;;;20.10;51.20;;;;;;5017477;28;87233;-45